Airfield :
LOGIN :

Register | Disclaimer

   EN    FR    IT 

 










Legend :    VFR   Marginal VFR   IFR   Intensive IFR   Very Intensive IFR
Visi :
Ceiling :
>= 8 km
>= 3000ft
5 to 8 km
1000 to 3000 ft
1500m to 5 km
500 to 1000 ft
800 to 1500m
200 to 500 ft
< 800m
< 200 ft
Symbols :   Thunderstorms  Fog  Heavy snow  Heavy precipitations  Wind > 20 kt
SIGMETs :     Misc.  Thunderstorms  Icing  Turbulence  Mountain Waves  Volcanic Ashes






- Airport Elevation : 545 ft
- IATA code : PZY


LZPP - Piešťany

CURRENT METAR :
  • 182000Z 13002KT 2000 BR BKN011 OVC017 M01/M02 Q1026

EXPIRED METARs :
  • 181930Z 15002KT 2000 BR SCT012 BKN060 OVC080 M01/M02 Q1026
  • 181900Z 00000KT 2000 BR BKN012 OVC050 M01/M02 Q1025
  • 181830Z 30002KT 3000 BR BKN015 OVC050 M01/M02 Q1026
  • 181800Z VRB01KT 5000 BR SCT010 OVC050 M01/M02 Q1026
  • 181730Z VRB01KT 5000 BR BKN008 OVC050 M01/M02 Q1026

TAF AMD TAF LZPP
Valid from the 18 at 19:00 until the 19 at 03:00 UTC


181910Z 1819/1903 VRB02KT 5000 BR SCT010 OVC050
TEMPO 1819/1903 1400 BR BKN010 OVC020
BECMG 1822/1900 35005KT
TEMPO 1823/1903 1000 -SN BR BKN008 OVC015



MET'MAP, your aeronautical weather chart ! - Copyright ORBIFLY December 2007 - Disclaimer

ORBIFLY MET'MAP TEAM :

Programming & Development : Alexandra Zaïnal
Concept & original design : Baudouin d'Aumeries
Assistance for programming : Marc-Olivier Méhu
Technical & hardware support : Manuel Goepfert

Contact : metmap@orbifly.com




SOURCES & CREDITS :

   NOAA